createdAt,value
2023-05-08T00:00:49.706Z,94.39
2023-05-08T00:03:17.180Z,94.76
2023-05-08T00:05:44.306Z,94.27
2023-05-08T00:08:11.357Z,94.31
2023-05-08T00:10:38.722Z,94.59
2023-05-08T00:13:06.037Z,94.01
2023-05-08T00:15:33.127Z,93.79
2023-05-08T00:18:01.101Z,94.32
2023-05-08T00:20:29.006Z,94.81
2023-05-08T00:22:57.889Z,95.62
2023-05-08T00:25:25.539Z,95.64
2023-05-08T00:27:52.599Z,95.84
2023-05-08T00:30:19.916Z,95.88
2023-05-08T00:32:47.446Z,96.23
2023-05-08T00:35:14.616Z,96.68
2023-05-08T00:37:43.696Z,96.85
2023-05-08T00:40:12.265Z,97.04
2023-05-08T00:42:39.814Z,97.61
2023-05-08T00:45:07.799Z,97.60
2023-05-08T00:47:35.578Z,97.68
2023-05-08T00:50:03.089Z,97.29
2023-05-08T00:52:32.853Z,97.80
2023-05-08T00:55:02.268Z,98.01
2023-05-08T00:57:32.449Z,98.33
2023-05-08T01:00:01.741Z,98.56
2023-05-08T01:02:31.637Z,98.37
2023-05-08T01:04:59.043Z,98.49
2023-05-08T01:07:27.554Z,98.45
2023-05-08T01:09:54.759Z,98.76
2023-05-08T01:12:30.075Z,99.29
2023-05-08T01:15:14.574Z,99.59
2023-05-08T01:17:56.331Z,99.72
2023-05-08T01:20:27.328Z,100.00
2023-05-08T01:23:31.924Z,100.00
2023-05-08T01:26:23.601Z,100.00
2023-05-08T01:29:27.818Z,100.00
2023-05-08T01:32:16.877Z,100.00
2023-05-08T01:34:51.502Z,100.00
2023-05-08T01:37:30.178Z,100.00
2023-05-08T01:40:08.129Z,100.00
2023-05-08T01:42:48.098Z,100.00
2023-05-08T01:45:23.400Z,99.94
2023-05-08T01:48:00.917Z,100.00
2023-05-08T01:50:35.634Z,100.00
2023-05-08T01:53:08.861Z,100.00
2023-05-08T01:55:37.651Z,100.00
2023-05-08T01:58:09.762Z,100.00
2023-05-08T02:00:40.233Z,100.00
2023-05-08T02:03:09.480Z,100.00
2023-05-08T02:05:40.358Z,100.00
2023-05-08T02:08:11.340Z,100.00
2023-05-08T02:10:40.085Z,100.00
2023-05-08T02:13:10.327Z,100.00
2023-05-08T02:15:39.637Z,100.00
2023-05-08T02:18:09.217Z,100.00
2023-05-08T02:20:38.673Z,100.00
2023-05-08T02:23:06.686Z,100.00
2023-05-08T02:25:35.681Z,100.00
2023-05-08T02:28:03.534Z,100.00
2023-05-08T02:30:31.146Z,100.00
2023-05-08T02:33:00.818Z,100.00
2023-05-08T02:35:31.493Z,100.00
2023-05-08T02:38:00.678Z,100.00
2023-05-08T02:40:29.727Z,100.00
2023-05-08T02:42:57.673Z,100.00
2023-05-08T02:45:28.889Z,100.00
2023-05-08T02:48:53.102Z,100.00
2023-05-08T02:51:37.954Z,100.00
2023-05-08T02:54:09.224Z,100.00
2023-05-08T02:56:48.566Z,100.00
2023-05-08T02:59:54.238Z,100.00
2023-05-08T03:02:24.574Z,100.00
2023-05-08T03:05:00.203Z,100.00
2023-05-08T03:07:33.798Z,100.00
2023-05-08T03:10:05.399Z,100.00
2023-05-08T03:12:36.305Z,100.00
2023-05-08T03:15:21.561Z,100.00
2023-05-08T03:17:54.783Z,100.00
2023-05-08T03:20:24.886Z,100.00
2023-05-08T03:22:54.179Z,100.00
2023-05-08T03:25:22.418Z,100.00
2023-05-08T03:27:52.042Z,100.00
2023-05-08T03:30:20.901Z,100.00
2023-05-08T03:32:53.206Z,100.00
2023-05-08T03:35:22.204Z,100.00
2023-05-08T03:37:49.410Z,100.00
2023-05-08T03:40:16.559Z,100.00
2023-05-08T03:42:44.494Z,100.00
2023-05-08T03:45:14.125Z,100.00
2023-05-08T03:47:42.486Z,100.00
2023-05-08T03:50:11.018Z,100.00
2023-05-08T03:52:38.535Z,100.00
2023-05-08T03:55:06.371Z,100.00
2023-05-08T03:57:57.956Z,100.00
2023-05-08T04:01:06.885Z,100.00
2023-05-08T04:03:46.586Z,100.00
2023-05-08T04:06:30.717Z,100.00
2023-05-08T04:09:08.097Z,100.00
2023-05-08T04:11:35.114Z,100.00
2023-05-08T04:14:07.099Z,100.00
2023-05-08T04:16:48.345Z,100.00
2023-05-08T04:19:22.329Z,100.00
2023-05-08T04:21:51.302Z,100.00
2023-05-08T04:24:20.165Z,100.00
2023-05-08T04:26:48.683Z,100.00
2023-05-08T04:29:17.046Z,99.33
2023-05-08T04:31:45.470Z,98.72
2023-05-08T04:34:12.796Z,98.66
2023-05-08T04:36:40.413Z,97.87
2023-05-08T04:39:08.018Z,96.64
2023-05-08T04:41:35.624Z,96.30
2023-05-08T04:44:04.430Z,96.37
2023-05-08T04:46:31.924Z,96.29
2023-05-08T04:48:59.143Z,94.60
2023-05-08T04:51:28.056Z,94.02
2023-05-08T04:53:55.945Z,92.39
2023-05-08T04:56:23.073Z,92.18
2023-05-08T04:58:51.149Z,90.24
2023-05-08T05:01:19.819Z,89.65
2023-05-08T05:03:47.096Z,86.34
2023-05-08T05:06:14.167Z,85.08
2023-05-08T05:08:43.495Z,84.41
2023-05-08T05:11:10.731Z,85.29
2023-05-08T05:13:37.881Z,83.80
2023-05-08T05:16:05.752Z,83.38
2023-05-08T05:18:33.001Z,83.63
2023-05-08T05:21:00.159Z,83.61
2023-05-08T05:23:28.579Z,83.63
2023-05-08T05:25:55.852Z,82.58
2023-05-08T05:28:24.597Z,82.24
2023-05-08T05:30:52.315Z,81.13
2023-05-08T05:33:19.413Z,79.59
2023-05-08T05:35:46.942Z,79.10
2023-05-08T05:38:14.335Z,77.77
2023-05-08T05:40:41.419Z,74.68
2023-05-08T05:43:08.576Z,75.12
2023-05-08T05:45:36.277Z,74.89
2023-05-08T05:48:03.695Z,72.42
2023-05-08T05:50:31.512Z,69.66
2023-05-08T05:52:59.620Z,70.07
2023-05-08T05:55:26.945Z,69.68
2023-05-08T05:57:54.025Z,67.60
2023-05-08T06:00:22.219Z,66.02
2023-05-08T06:02:49.906Z,65.97
2023-05-08T06:05:19.059Z,68.03
2023-05-08T06:07:46.457Z,67.85
2023-05-08T06:10:13.889Z,64.61
2023-05-08T06:12:41.877Z,65.12
2023-05-08T06:15:09.978Z,65.25
2023-05-08T06:17:37.540Z,65.03
2023-05-08T06:20:05.506Z,65.50
2023-05-08T06:22:32.605Z,64.76
2023-05-08T06:24:59.988Z,62.87
2023-05-08T06:27:27.094Z,62.13
2023-05-08T06:29:54.262Z,62.71
2023-05-08T06:32:22.373Z,62.43
2023-05-08T06:34:49.551Z,61.71
2023-05-08T06:37:16.671Z,60.61
2023-05-08T06:39:44.172Z,62.24
2023-05-08T06:42:11.390Z,60.77
2023-05-08T06:44:38.795Z,60.61
2023-05-08T06:47:06.716Z,57.95
2023-05-08T06:49:36.070Z,57.06
2023-05-08T06:52:03.541Z,57.01
2023-05-08T06:54:30.976Z,56.61
2023-05-08T06:56:58.104Z,55.91
2023-05-08T06:59:25.331Z,55.92
2023-05-08T07:01:52.726Z,54.35
2023-05-08T07:04:19.955Z,54.03
2023-05-08T07:06:47.000Z,52.40
2023-05-08T07:09:15.015Z,52.10
2023-05-08T07:11:42.391Z,51.58
2023-05-08T07:14:09.474Z,51.47
2023-05-08T07:16:37.837Z,50.60
2023-05-08T07:19:05.165Z,49.89
2023-05-08T07:21:32.364Z,48.48
2023-05-08T07:23:59.782Z,47.50
2023-05-08T07:26:27.403Z,46.48
2023-05-08T07:28:54.548Z,44.79
2023-05-08T07:31:22.221Z,45.61
2023-05-08T07:33:49.451Z,43.91
2023-05-08T07:36:16.791Z,43.74
2023-05-08T07:38:44.259Z,43.08
2023-05-08T07:41:11.616Z,42.15
2023-05-08T07:43:39.706Z,43.21
2023-05-08T07:46:07.494Z,43.40
2023-05-08T07:48:34.526Z,40.89
2023-05-08T07:51:01.709Z,38.29
2023-05-08T07:53:29.091Z,36.80
2023-05-08T07:55:56.175Z,35.76
2023-05-08T07:58:23.874Z,35.57
2023-05-08T08:00:51.389Z,36.34
2023-05-08T08:03:18.735Z,35.05
2023-05-08T08:05:45.924Z,34.17
2023-05-08T08:08:13.012Z,33.74
2023-05-08T08:10:40.422Z,34.71
2023-05-08T08:13:07.592Z,34.26
2023-05-08T08:15:34.641Z,33.83
2023-05-08T08:18:02.094Z,35.25
2023-05-08T08:20:29.462Z,34.61
2023-05-08T08:22:56.597Z,35.85
2023-05-08T08:25:24.553Z,35.21
2023-05-08T08:27:51.804Z,34.47
2023-05-08T08:30:19.117Z,34.91
2023-05-08T08:32:46.871Z,35.14
2023-05-08T08:35:14.552Z,34.21
2023-05-08T08:37:42.080Z,33.97
2023-05-08T08:40:10.027Z,33.37
2023-05-08T08:42:37.138Z,33.58
2023-05-08T08:45:04.557Z,33.69
2023-05-08T08:47:41.308Z,33.64
2023-05-08T08:50:12.726Z,34.80
2023-05-08T08:52:54.428Z,34.77
2023-05-08T08:55:23.553Z,35.37
2023-05-08T08:58:07.736Z,34.02
2023-05-08T09:00:37.302Z,35.51
2023-05-08T09:03:09.380Z,34.50
2023-05-08T09:05:37.028Z,35.00
2023-05-08T09:08:05.501Z,36.17
2023-05-08T09:10:32.868Z,35.77
2023-05-08T09:13:00.124Z,34.46
2023-05-08T09:15:27.917Z,34.35
2023-05-08T09:17:55.045Z,34.15
2023-05-08T09:20:22.872Z,34.15
2023-05-08T09:22:52.833Z,33.45
2023-05-08T09:25:20.188Z,33.40
2023-05-08T09:27:47.223Z,33.25
2023-05-08T09:30:14.701Z,34.22
2023-05-08T09:32:44.544Z,33.82
2023-05-08T09:35:13.286Z,34.11
2023-05-08T09:37:44.171Z,33.98
2023-05-08T09:40:22.316Z,34.29
2023-05-08T09:42:51.608Z,33.53
2023-05-08T09:45:32.782Z,32.92
2023-05-08T09:48:00.281Z,32.34
2023-05-08T09:50:27.839Z,31.08
2023-05-08T09:52:55.465Z,31.79
2023-05-08T09:55:22.915Z,32.55
2023-05-08T09:57:58.596Z,32.41
2023-05-08T10:00:27.533Z,31.28
2023-05-08T10:03:01.523Z,30.87
2023-05-08T10:05:31.833Z,31.12
2023-05-08T10:08:18.679Z,30.98
2023-05-08T10:10:46.115Z,30.21
2023-05-08T10:13:14.027Z,29.64
2023-05-08T10:15:43.113Z,30.44
2023-05-08T10:18:12.201Z,30.80
2023-05-08T10:20:42.449Z,31.14
2023-05-08T10:23:14.555Z,29.61
2023-05-08T10:25:46.759Z,30.14
2023-05-08T10:28:23.363Z,29.93
2023-05-08T10:30:52.092Z,30.23
2023-05-08T10:33:21.563Z,30.62
2023-05-08T10:35:49.139Z,30.75
2023-05-08T10:38:17.228Z,31.12
2023-05-08T10:40:45.001Z,30.51
2023-05-08T10:43:12.617Z,29.60
2023-05-08T10:45:40.389Z,31.75
2023-05-08T10:48:35.906Z,29.53
2023-05-08T10:51:10.148Z,29.35
2023-05-08T10:53:42.689Z,29.16
2023-05-08T10:56:10.564Z,28.24
2023-05-08T10:58:39.393Z,30.59
2023-05-08T11:01:09.388Z,29.04
2023-05-08T11:03:45.505Z,29.50
2023-05-08T11:06:13.674Z,29.14
2023-05-08T11:08:47.871Z,28.64
2023-05-08T11:11:23.972Z,29.33
2023-05-08T11:13:56.572Z,29.95
2023-05-08T11:16:54.958Z,29.81
2023-05-08T11:19:24.695Z,30.53
2023-05-08T11:22:14.663Z,29.34
2023-05-08T11:25:00.391Z,29.59
2023-05-08T11:27:49.149Z,29.79
2023-05-08T11:30:37.246Z,29.88
2023-05-08T11:33:04.691Z,29.33
2023-05-08T11:35:41.572Z,28.67
2023-05-08T11:38:24.082Z,28.39
2023-05-08T11:41:03.236Z,28.78
2023-05-08T11:43:33.412Z,29.34
2023-05-08T11:46:04.303Z,29.79
2023-05-08T11:48:32.767Z,28.29
2023-05-08T11:51:00.588Z,28.88
2023-05-08T11:53:28.912Z,30.43
2023-05-08T11:55:56.165Z,28.98
2023-05-08T11:58:23.373Z,28.53
2023-05-08T12:00:50.948Z,29.44
2023-05-08T12:03:20.685Z,29.16
2023-05-08T12:05:49.559Z,29.30
2023-05-08T12:08:18.198Z,29.31
2023-05-08T12:10:52.582Z,29.19
2023-05-08T12:13:22.202Z,29.21
2023-05-08T12:15:55.220Z,29.73
2023-05-08T12:18:23.621Z,29.51
2023-05-08T12:20:57.081Z,28.40
2023-05-08T12:23:29.549Z,28.71
2023-05-08T12:26:01.895Z,29.50
2023-05-08T12:28:29.732Z,29.82
2023-05-08T12:30:57.316Z,28.74
2023-05-08T12:33:25.285Z,28.96
2023-05-08T12:35:52.492Z,28.92
2023-05-08T12:38:19.813Z,28.50
2023-05-08T12:40:53.097Z,28.46
2023-05-08T12:43:20.477Z,28.91
2023-05-08T12:45:52.582Z,29.14
2023-05-08T12:48:20.559Z,28.87
2023-05-08T12:50:47.942Z,28.25
2023-05-08T12:53:21.733Z,29.65
2023-05-08T12:55:55.695Z,30.36
2023-05-08T12:58:31.023Z,29.51
2023-05-08T13:01:13.285Z,29.76
2023-05-08T13:03:41.488Z,29.39
2023-05-08T13:06:21.121Z,29.66
2023-05-08T13:08:55.015Z,30.79
2023-05-08T13:11:31.438Z,31.10
2023-05-08T13:13:58.683Z,31.78
2023-05-08T13:16:26.488Z,31.37
2023-05-08T13:18:53.637Z,30.25
2023-05-08T13:21:20.873Z,30.36
2023-05-08T13:23:48.231Z,29.43
2023-05-08T13:26:15.235Z,29.82
2023-05-08T13:28:42.364Z,30.27
2023-05-08T13:31:09.636Z,29.67
2023-05-08T13:33:38.265Z,29.61
2023-05-08T13:36:05.454Z,29.74
2023-05-08T13:38:32.814Z,29.71
2023-05-08T13:40:59.806Z,30.04
2023-05-08T13:43:26.907Z,30.50
2023-05-08T13:45:54.377Z,30.05
2023-05-08T13:48:21.424Z,29.89
2023-05-08T13:50:48.526Z,30.25
2023-05-08T13:53:15.884Z,30.11
2023-05-08T13:55:42.922Z,29.12
2023-05-08T13:58:09.997Z,28.59
2023-05-08T14:00:37.324Z,29.34
2023-05-08T14:03:04.814Z,29.47
2023-05-08T14:05:32.517Z,30.07
2023-05-08T14:07:59.574Z,29.21
2023-05-08T14:10:27.218Z,29.02
2023-05-08T14:12:54.311Z,30.25
2023-05-08T14:15:22.164Z,29.48
2023-05-08T14:17:50.761Z,29.80
2023-05-08T14:20:17.885Z,29.69
2023-05-08T14:22:46.207Z,29.39
2023-05-08T14:25:14.966Z,28.06
2023-05-08T14:27:42.212Z,28.09
2023-05-08T14:30:09.881Z,27.99
2023-05-08T14:32:37.335Z,27.64
2023-05-08T14:35:04.532Z,27.10
2023-05-08T14:37:31.646Z,26.74
2023-05-08T14:39:59.483Z,26.01
2023-05-08T14:42:26.682Z,25.65
2023-05-08T14:44:53.947Z,25.56
2023-05-08T14:47:21.467Z,26.31
2023-05-08T14:49:48.486Z,26.80
2023-05-08T14:52:15.895Z,25.86
2023-05-08T14:54:43.455Z,25.52
2023-05-08T14:57:10.758Z,25.91
2023-05-08T14:59:43.555Z,26.90
2023-05-08T15:02:18.103Z,27.71
2023-05-08T15:04:46.092Z,26.09
2023-05-08T15:07:13.204Z,26.23
2023-05-08T15:09:40.639Z,26.17
2023-05-08T15:12:07.818Z,25.81
2023-05-08T15:14:34.941Z,26.06
2023-05-08T15:17:02.502Z,25.08
2023-05-08T15:19:29.480Z,25.36
2023-05-08T15:21:56.505Z,25.15
2023-05-08T15:24:23.819Z,24.87
2023-05-08T15:26:50.908Z,24.39
2023-05-08T15:29:18.018Z,24.96
2023-05-08T15:31:45.360Z,23.29
2023-05-08T15:34:12.591Z,22.91
2023-05-08T15:36:39.661Z,23.26
2023-05-08T15:39:07.025Z,23.49
2023-05-08T15:41:34.295Z,24.00
2023-05-08T15:44:01.688Z,23.83
2023-05-08T15:46:29.135Z,23.60
2023-05-08T15:48:56.210Z,23.43
2023-05-08T15:51:23.343Z,24.27
2023-05-08T15:53:52.286Z,25.16
2023-05-08T15:56:24.574Z,25.63
2023-05-08T15:58:52.708Z,25.61
2023-05-08T16:01:20.740Z,26.37
2023-05-08T16:03:48.134Z,26.28
2023-05-08T16:06:15.151Z,25.89
2023-05-08T16:08:42.145Z,25.83
2023-05-08T16:11:09.534Z,26.09
2023-05-08T16:13:36.570Z,26.46
2023-05-08T16:16:05.258Z,26.79
2023-05-08T16:18:32.690Z,27.74
2023-05-08T16:20:59.779Z,27.73
2023-05-08T16:25:54.672Z,28.97
2023-05-08T16:28:21.906Z,29.47
2023-05-08T16:30:48.959Z,29.54
2023-05-08T16:33:16.213Z,30.13
2023-05-08T16:35:43.306Z,31.32
2023-05-08T16:38:10.430Z,31.40
2023-05-08T16:40:37.742Z,32.06
2023-05-08T16:43:04.889Z,32.60
2023-05-08T16:45:32.009Z,33.20
2023-05-08T16:47:59.442Z,33.88
2023-05-08T16:50:26.524Z,37.00
2023-05-08T16:52:53.566Z,39.97
2023-05-08T16:55:20.976Z,40.88
2023-05-08T16:57:48.077Z,41.40
2023-05-08T17:00:15.500Z,42.18
2023-05-08T17:02:43.070Z,42.31
2023-05-08T17:05:10.145Z,42.49
2023-05-08T17:07:37.226Z,43.33
2023-05-08T17:10:04.908Z,43.55
2023-05-08T17:12:31.960Z,43.79
2023-05-08T17:14:59.015Z,43.82
2023-05-08T17:17:26.449Z,44.75
2023-05-08T17:19:53.465Z,44.87
2023-05-08T17:22:20.653Z,45.24
2023-05-08T17:24:48.126Z,45.67
2023-05-08T17:27:15.154Z,46.01
2023-05-08T17:29:42.190Z,46.29
2023-05-08T17:32:09.654Z,46.59
2023-05-08T17:34:37.474Z,46.80
2023-05-08T17:37:04.596Z,47.35
2023-05-08T17:39:31.931Z,48.05
2023-05-08T17:41:58.970Z,48.45
2023-05-08T17:44:26.206Z,48.74
2023-05-08T17:46:53.477Z,48.64
2023-05-08T17:49:20.502Z,48.62
2023-05-08T17:51:47.592Z,48.56
2023-05-08T17:54:14.981Z,49.33
2023-05-08T17:56:42.071Z,49.54
2023-05-08T17:59:09.140Z,49.85
2023-05-08T18:01:36.551Z,50.12
2023-05-08T18:04:04.221Z,50.28
2023-05-08T18:06:31.487Z,50.23
2023-05-08T18:08:58.510Z,50.56
2023-05-08T18:11:27.054Z,50.75
2023-05-08T18:13:54.313Z,50.79
2023-05-08T18:16:22.354Z,50.98
2023-05-08T18:18:50.268Z,50.66
2023-05-08T18:21:17.725Z,50.79
2023-05-08T18:23:44.998Z,50.98
2023-05-08T18:26:16.839Z,51.11
2023-05-08T18:28:44.532Z,51.69
2023-05-08T18:31:13.332Z,52.02
2023-05-08T18:33:40.850Z,52.41
2023-05-08T18:36:08.058Z,52.41
2023-05-08T18:38:36.368Z,52.52
2023-05-08T18:41:05.146Z,52.83
2023-05-08T18:43:32.275Z,52.84
2023-05-08T18:46:00.585Z,52.93
2023-05-08T18:48:29.402Z,52.70
2023-05-08T18:50:58.634Z,53.09
2023-05-08T18:53:25.957Z,53.10
2023-05-08T18:55:53.373Z,53.02
2023-05-08T18:58:20.525Z,53.28
2023-05-08T19:00:47.705Z,53.61
2023-05-08T19:03:15.361Z,53.44
2023-05-08T19:05:42.512Z,53.88
2023-05-08T19:08:09.763Z,52.95
2023-05-08T19:10:37.163Z,53.06
2023-05-08T19:13:04.318Z,53.20
2023-05-08T19:15:31.437Z,53.19
2023-05-08T19:17:58.912Z,53.32
2023-05-08T19:20:26.139Z,53.41
2023-05-08T19:22:53.823Z,53.43
2023-05-08T19:25:21.791Z,53.68
2023-05-08T19:27:49.023Z,53.91
2023-05-08T19:30:16.412Z,53.83
2023-05-08T19:32:43.863Z,54.37
2023-05-08T19:35:10.970Z,54.67
2023-05-08T19:37:38.088Z,54.42
2023-05-08T19:40:06.392Z,54.34
2023-05-08T19:42:33.526Z,54.93
2023-05-08T19:45:01.316Z,55.10
2023-05-08T19:47:28.745Z,55.64
2023-05-08T19:49:55.991Z,55.89
2023-05-08T19:52:23.116Z,56.28
2023-05-08T19:54:50.586Z,56.63
2023-05-08T19:57:17.676Z,56.54
2023-05-08T19:59:44.766Z,56.37
2023-05-08T20:02:12.188Z,56.72
2023-05-08T20:05:10.486Z,56.75
2023-05-08T20:07:29.470Z,57.25
2023-05-08T20:09:56.855Z,57.46
2023-05-08T20:12:23.828Z,57.56
2023-05-08T20:14:50.867Z,57.68
2023-05-08T20:17:18.226Z,57.81
2023-05-08T20:19:45.281Z,58.31
2023-05-08T20:22:12.325Z,58.66
2023-05-08T20:24:39.597Z,58.72
2023-05-08T20:27:06.708Z,59.04
2023-05-08T20:29:33.969Z,58.97
2023-05-08T20:32:02.249Z,58.68
2023-05-08T20:34:29.906Z,59.02
2023-05-08T20:36:59.233Z,59.16
2023-05-08T20:39:27.108Z,59.02
2023-05-08T20:41:54.176Z,59.23
2023-05-08T20:44:21.254Z,59.12
2023-05-08T20:46:48.989Z,58.86
2023-05-08T20:49:17.191Z,58.67
2023-05-08T20:51:44.394Z,58.60
2023-05-08T20:54:11.683Z,58.99
2023-05-08T20:56:38.788Z,59.02
2023-05-08T20:59:05.897Z,59.46
2023-05-08T21:01:33.353Z,59.25
2023-05-08T21:04:00.416Z,60.09
2023-05-08T21:06:27.591Z,59.98
2023-05-08T21:08:54.998Z,60.07
2023-05-08T21:11:22.209Z,59.61
2023-05-08T21:13:49.358Z,59.61
2023-05-08T21:16:16.867Z,59.94
2023-05-08T21:18:44.088Z,60.79
2023-05-08T21:21:18.831Z,60.47
2023-05-08T21:23:46.391Z,60.48
2023-05-08T21:26:13.448Z,60.71
2023-05-08T21:28:40.841Z,60.90
2023-05-08T21:31:08.265Z,61.12
2023-05-08T21:33:35.657Z,61.18
2023-05-08T21:36:02.827Z,61.35
2023-05-08T21:38:30.236Z,61.50
2023-05-08T21:40:57.368Z,61.55
2023-05-08T21:43:24.457Z,61.83
2023-05-08T21:45:51.819Z,61.62
2023-05-08T21:48:19.481Z,61.60
2023-05-08T21:50:46.451Z,61.87
2023-05-08T21:53:13.752Z,61.53
2023-05-08T21:55:41.025Z,61.63
2023-05-08T21:58:08.101Z,62.14
2023-05-08T22:00:35.522Z,62.24
2023-05-08T22:03:02.977Z,62.04
2023-05-08T22:05:30.049Z,62.37
2023-05-08T22:07:57.473Z,62.78
2023-05-08T22:10:25.637Z,62.63
2023-05-08T22:12:52.775Z,63.11
2023-05-08T22:15:29.675Z,63.09
2023-05-08T22:17:58.744Z,63.31
2023-05-08T22:20:26.020Z,63.49
2023-05-08T22:22:53.404Z,63.72
2023-05-08T22:25:21.949Z,63.46
2023-05-08T22:27:49.257Z,63.66
2023-05-08T22:30:16.322Z,63.65
2023-05-08T22:32:52.505Z,63.02
2023-05-08T22:35:21.336Z,62.48
2023-05-08T22:37:48.638Z,62.18
2023-05-08T22:40:15.736Z,62.10
2023-05-08T22:42:43.825Z,62.26
2023-05-08T22:45:12.195Z,62.84
2023-05-08T22:47:39.795Z,62.56
2023-05-08T22:50:09.147Z,63.61
2023-05-08T22:52:36.710Z,63.58
2023-05-08T22:55:04.974Z,63.90
2023-05-08T22:57:32.076Z,64.39
2023-05-08T22:59:59.401Z,64.63
2023-05-08T23:02:32.097Z,64.60
2023-05-08T23:05:00.234Z,65.04
2023-05-08T23:07:27.509Z,64.76
2023-05-08T23:09:54.503Z,64.29
2023-05-08T23:12:21.966Z,64.84
2023-05-08T23:14:48.981Z,64.05
2023-05-08T23:17:16.003Z,64.42
2023-05-08T23:19:43.352Z,64.80
2023-05-08T23:22:10.334Z,64.86
2023-05-08T23:24:37.459Z,65.45
2023-05-08T23:27:04.734Z,66.05
2023-05-08T23:29:31.761Z,65.52
2023-05-08T23:31:59.846Z,65.92
2023-05-08T23:34:27.196Z,66.04
2023-05-08T23:36:54.230Z,66.75
2023-05-08T23:39:21.338Z,66.98
2023-05-08T23:41:48.621Z,67.19
2023-05-08T23:44:15.681Z,67.44
2023-05-08T23:46:42.793Z,67.02
2023-05-08T23:49:10.300Z,66.83
2023-05-08T23:51:37.264Z,67.38
2023-05-08T23:54:04.983Z,67.21
2023-05-08T23:56:32.651Z,67.42
2023-05-08T23:58:59.692Z,67.69
